createdAt,value
2023-04-27T00:00:46.273Z,7.75
2023-04-27T00:01:49.119Z,7.25
2023-04-27T00:02:52.114Z,7.00
2023-04-27T00:03:55.309Z,7.00
2023-04-27T00:04:59.072Z,6.00
2023-04-27T00:06:02.312Z,5.00
2023-04-27T00:07:05.190Z,5.25
2023-04-27T00:08:08.632Z,6.00
2023-04-27T00:09:11.871Z,5.00
2023-04-27T00:10:14.896Z,5.00
2023-04-27T00:11:18.197Z,7.75
2023-04-27T00:12:21.121Z,7.00
2023-04-27T00:13:24.139Z,6.50
2023-04-27T00:14:29.770Z,6.00
2023-04-27T00:15:32.850Z,7.00
2023-04-27T00:16:35.827Z,6.50
2023-04-27T00:17:38.772Z,6.00
2023-04-27T00:18:41.970Z,6.50
2023-04-27T00:19:44.885Z,7.00
2023-04-27T00:20:48.225Z,5.00
2023-04-27T00:21:51.041Z,6.00
2023-04-27T00:22:53.889Z,7.00
2023-04-27T00:23:56.754Z,7.00
2023-04-27T00:24:59.572Z,7.00
2023-04-27T00:26:02.467Z,6.00
2023-04-27T00:27:05.390Z,6.00
2023-04-27T00:28:08.236Z,6.25
2023-04-27T00:29:11.139Z,7.25
2023-04-27T00:30:14.207Z,7.00
2023-04-27T00:31:17.089Z,7.00
2023-04-27T00:32:20.026Z,7.00
2023-04-27T00:33:22.896Z,6.00
2023-04-27T00:34:25.890Z,7.00
2023-04-27T00:35:28.857Z,7.00
2023-04-27T00:36:31.752Z,5.50
2023-04-27T00:37:34.543Z,7.00
2023-04-27T00:38:38.293Z,7.00
2023-04-27T00:39:41.129Z,7.25
2023-04-27T00:40:43.985Z,7.00
2023-04-27T00:41:46.994Z,6.00
2023-04-27T00:42:49.871Z,6.25
2023-04-27T00:43:52.775Z,6.00
2023-04-27T00:44:55.805Z,6.50
2023-04-27T00:45:59.021Z,7.00
2023-04-27T00:47:01.901Z,6.75
2023-04-27T00:48:05.016Z,6.00
2023-04-27T00:49:08.005Z,5.50
2023-04-27T00:50:11.858Z,7.00
2023-04-27T00:51:15.077Z,7.50
2023-04-27T00:52:17.926Z,6.00
2023-04-27T00:53:21.118Z,6.75
2023-04-27T00:54:24.704Z,5.75
2023-04-27T00:55:27.660Z,6.00
2023-04-27T00:56:30.604Z,5.00
2023-04-27T00:57:35.229Z,5.25
2023-04-27T00:58:38.518Z,6.00
2023-04-27T00:59:41.705Z,7.00
2023-04-27T01:00:45.047Z,7.00
2023-04-27T01:01:48.353Z,6.00
2023-04-27T01:02:53.402Z,5.00
2023-04-27T01:03:56.589Z,4.75
2023-04-27T01:04:59.689Z,5.00
2023-04-27T01:06:02.947Z,4.50
2023-04-27T01:07:05.892Z,7.00
2023-04-27T01:08:08.803Z,7.00
2023-04-27T01:09:13.095Z,6.00
2023-04-27T01:10:16.115Z,7.00
2023-04-27T01:11:18.972Z,7.00
2023-04-27T01:12:21.910Z,6.00
2023-04-27T01:13:24.733Z,7.00
2023-04-27T01:14:27.630Z,7.00
2023-04-27T01:15:30.714Z,7.00
2023-04-27T01:16:34.945Z,7.00
2023-04-27T01:17:37.816Z,6.00
2023-04-27T01:18:41.953Z,7.00
2023-04-27T01:19:46.608Z,6.50
2023-04-27T01:20:49.524Z,7.00
2023-04-27T01:21:52.396Z,7.00
2023-04-27T01:22:55.247Z,7.00
2023-04-27T01:23:58.140Z,7.00
2023-04-27T01:25:00.977Z,7.00
2023-04-27T01:26:03.908Z,4.25
2023-04-27T01:27:06.923Z,7.00
2023-04-27T01:28:09.794Z,7.00
2023-04-27T01:29:12.971Z,7.25
2023-04-27T01:30:16.963Z,7.00
2023-04-27T01:31:19.973Z,5.00
2023-04-27T01:32:23.083Z,8.00
2023-04-27T01:33:25.929Z,6.00
2023-04-27T01:34:28.944Z,7.00
2023-04-27T01:35:32.954Z,7.00
2023-04-27T01:36:35.823Z,6.00
2023-04-27T01:37:38.888Z,7.00
2023-04-27T01:38:42.345Z,6.00
2023-04-27T01:39:45.400Z,7.00
2023-04-27T01:40:48.286Z,5.00
2023-04-27T01:41:51.132Z,7.00
2023-04-27T01:42:53.978Z,5.00
2023-04-27T01:43:56.964Z,6.50
2023-04-27T01:45:01.728Z,7.00
2023-04-27T01:46:09.032Z,5.75
2023-04-27T01:47:11.878Z,6.75
2023-04-27T01:48:14.710Z,7.00
2023-04-27T01:49:17.657Z,5.00
2023-04-27T01:50:21.091Z,5.25
2023-04-27T01:51:24.095Z,7.00
2023-04-27T01:52:27.352Z,6.00
2023-04-27T01:53:30.241Z,6.75
2023-04-27T01:54:33.093Z,7.00
2023-04-27T01:55:35.931Z,6.75
2023-04-27T01:56:38.865Z,6.00
2023-04-27T01:57:41.865Z,6.00
2023-04-27T01:58:44.924Z,6.50
2023-04-27T01:59:47.801Z,4.00
2023-04-27T02:00:50.915Z,5.00
2023-04-27T02:01:53.981Z,6.00
2023-04-27T02:02:58.645Z,5.00
2023-04-27T02:04:01.674Z,5.50
2023-04-27T02:05:05.730Z,6.00
2023-04-27T02:06:08.999Z,6.00
2023-04-27T02:07:12.425Z,6.00
2023-04-27T02:08:15.771Z,7.00
2023-04-27T02:09:18.647Z,7.00
2023-04-27T02:10:23.509Z,6.00
2023-04-27T02:11:26.333Z,7.00
2023-04-27T02:12:29.152Z,5.00
2023-04-27T02:13:32.176Z,4.50
2023-04-27T02:14:35.032Z,5.00
2023-04-27T02:15:38.386Z,6.00
2023-04-27T02:16:41.341Z,5.25
2023-04-27T02:17:45.356Z,5.25
2023-04-27T02:18:48.268Z,5.00
2023-04-27T02:19:51.114Z,6.00
2023-04-27T02:20:53.968Z,7.00
2023-04-27T02:21:56.925Z,7.00
2023-04-27T02:23:00.245Z,8.25
2023-04-27T02:24:03.429Z,9.50
2023-04-27T02:25:06.751Z,7.00
2023-04-27T02:26:09.575Z,6.00
2023-04-27T02:27:12.509Z,7.00
2023-04-27T02:28:15.969Z,7.00
2023-04-27T02:29:19.855Z,6.25
2023-04-27T02:30:23.205Z,4.00
2023-04-27T02:31:26.888Z,6.00
2023-04-27T02:32:29.784Z,5.25
2023-04-27T02:33:33.362Z,6.75
2023-04-27T02:34:36.199Z,7.00
2023-04-27T02:35:39.013Z,6.75
2023-04-27T02:36:41.936Z,7.00
2023-04-27T02:37:44.840Z,6.00
2023-04-27T02:38:47.799Z,5.25
2023-04-27T02:39:50.645Z,7.25
2023-04-27T02:40:56.733Z,6.00
2023-04-27T02:41:59.565Z,6.00
2023-04-27T02:43:02.466Z,7.00
2023-04-27T02:44:05.373Z,6.25
2023-04-27T02:45:09.424Z,6.00
2023-04-27T02:46:12.273Z,5.00
2023-04-27T02:47:15.375Z,7.00
2023-04-27T02:48:18.218Z,7.25
2023-04-27T02:49:21.075Z,7.00
2023-04-27T02:50:23.930Z,6.00
2023-04-27T02:51:26.902Z,6.75
2023-04-27T02:52:29.935Z,11.00
2023-04-27T02:53:32.853Z,7.00
2023-04-27T02:54:36.182Z,7.00
2023-04-27T02:55:39.853Z,7.00
2023-04-27T02:56:42.712Z,9.00
2023-04-27T02:57:45.555Z,9.75
2023-04-27T02:58:49.323Z,10.00
2023-04-27T02:59:52.281Z,7.00
2023-04-27T03:00:58.791Z,7.25
2023-04-27T03:02:01.724Z,8.00
2023-04-27T03:03:05.557Z,7.00
2023-04-27T03:04:08.627Z,7.75
2023-04-27T03:05:12.377Z,7.00
2023-04-27T03:06:15.663Z,6.00
2023-04-27T03:07:18.472Z,7.00
2023-04-27T03:08:21.323Z,6.00
2023-04-27T03:09:24.252Z,7.00
2023-04-27T03:10:27.113Z,8.00
2023-04-27T03:11:29.949Z,9.00
2023-04-27T03:12:32.769Z,10.00
2023-04-27T03:13:42.665Z,8.75
2023-04-27T03:14:45.478Z,9.00
2023-04-27T03:15:48.391Z,7.00
2023-04-27T03:16:51.424Z,7.75
2023-04-27T03:17:54.334Z,7.75
2023-04-27T03:18:57.528Z,6.25
2023-04-27T03:20:00.457Z,6.00
2023-04-27T03:21:10.712Z,6.00
2023-04-27T03:22:13.549Z,7.00
2023-04-27T03:23:16.460Z,7.75
2023-04-27T03:24:19.360Z,9.00
2023-04-27T03:25:22.975Z,8.00
2023-04-27T03:26:25.845Z,8.50
2023-04-27T03:27:28.670Z,9.50
2023-04-27T03:28:31.498Z,7.25
2023-04-27T03:29:34.327Z,10.25
2023-04-27T03:30:37.269Z,12.75
2023-04-27T03:31:40.294Z,10.00
2023-04-27T03:32:44.962Z,10.00
2023-04-27T03:33:49.160Z,9.25
2023-04-27T03:34:52.025Z,11.00
2023-04-27T03:35:59.061Z,11.50
2023-04-27T03:37:02.012Z,12.00
2023-04-27T03:38:04.841Z,12.00
2023-04-27T03:39:07.897Z,13.25
2023-04-27T03:40:11.311Z,13.00
2023-04-27T03:41:14.170Z,11.00
2023-04-27T03:42:17.052Z,10.25
2023-04-27T03:43:20.760Z,9.50
2023-04-27T03:44:23.602Z,9.75
2023-04-27T03:45:26.511Z,9.00
2023-04-27T03:46:29.432Z,11.00
2023-04-27T03:47:32.405Z,11.00
2023-04-27T03:48:35.361Z,12.75
2023-04-27T03:49:38.254Z,7.75
2023-04-27T03:50:41.424Z,7.00
2023-04-27T03:51:45.241Z,7.50
2023-04-27T03:52:48.085Z,11.00
2023-04-27T03:53:50.896Z,12.00
2023-04-27T03:54:53.701Z,11.00
2023-04-27T03:55:56.774Z,10.00
2023-04-27T03:56:59.663Z,11.00
2023-04-27T03:58:02.541Z,10.75
2023-04-27T03:59:06.187Z,10.00
2023-04-27T04:00:12.942Z,10.00
2023-04-27T04:01:16.137Z,7.50
2023-04-27T04:02:19.267Z,5.75
2023-04-27T04:03:22.544Z,8.00
2023-04-27T04:04:25.825Z,6.00
2023-04-27T04:05:28.848Z,8.50
2023-04-27T04:06:32.521Z,10.00
2023-04-27T04:07:35.667Z,8.00
2023-04-27T04:08:38.709Z,9.75
2023-04-27T04:09:41.605Z,11.00
2023-04-27T04:10:44.455Z,8.00
2023-04-27T04:11:47.331Z,9.50
2023-04-27T04:12:50.224Z,11.00
2023-04-27T04:13:53.152Z,10.50
2023-04-27T04:14:56.039Z,8.00
2023-04-27T04:16:03.510Z,7.00
2023-04-27T04:17:06.601Z,8.00
2023-04-27T04:18:09.477Z,9.00
2023-04-27T04:19:12.811Z,8.25
2023-04-27T04:20:15.955Z,7.00
2023-04-27T04:21:18.769Z,9.50
2023-04-27T04:22:21.660Z,10.00
2023-04-27T04:23:24.926Z,7.50
2023-04-27T04:24:27.784Z,7.75
2023-04-27T04:25:30.695Z,9.00
2023-04-27T04:26:33.760Z,9.50
2023-04-27T04:27:37.322Z,9.50
2023-04-27T04:28:40.195Z,11.00
2023-04-27T04:29:43.091Z,10.00
2023-04-27T04:30:45.969Z,8.25
2023-04-27T04:31:48.867Z,8.75
2023-04-27T04:32:51.941Z,8.00
2023-04-27T04:33:54.869Z,9.00
2023-04-27T04:34:57.754Z,7.50
2023-04-27T04:36:00.619Z,8.50
2023-04-27T04:37:03.579Z,11.00
2023-04-27T04:38:07.245Z,14.00
2023-04-27T04:39:10.203Z,11.00
2023-04-27T04:40:14.105Z,10.00
2023-04-27T04:41:17.080Z,11.00
2023-04-27T04:42:19.970Z,11.75
2023-04-27T04:43:23.560Z,13.00
2023-04-27T04:44:26.684Z,13.75
2023-04-27T04:45:30.094Z,11.00
2023-04-27T04:46:33.557Z,9.00
2023-04-27T04:47:36.530Z,9.00
2023-04-27T04:48:40.189Z,10.25
2023-04-27T04:49:43.076Z,12.75
2023-04-27T04:50:45.971Z,12.00
2023-04-27T04:51:48.857Z,14.00
2023-04-27T04:52:51.774Z,15.00
2023-04-27T04:53:54.930Z,12.00
2023-04-27T04:54:57.883Z,12.00
2023-04-27T04:56:15.716Z,13.00
2023-04-27T04:57:18.660Z,12.00
2023-04-27T04:58:21.571Z,11.50
2023-04-27T04:59:24.589Z,11.00
2023-04-27T05:00:27.664Z,11.00
2023-04-27T05:01:30.813Z,11.00
2023-04-27T05:02:33.859Z,14.00
2023-04-27T05:03:37.043Z,12.00
2023-04-27T05:04:40.234Z,9.00
2023-04-27T05:05:43.500Z,9.00
2023-04-27T05:06:46.305Z,12.00
2023-04-27T05:07:49.149Z,10.50
2023-04-27T05:08:52.034Z,8.00
2023-04-27T05:09:55.032Z,10.00
2023-04-27T05:10:57.978Z,9.00
2023-04-27T05:12:03.089Z,10.50
2023-04-27T05:13:07.195Z,11.00
2023-04-27T05:14:10.221Z,10.00
2023-04-27T05:15:13.264Z,9.00
2023-04-27T05:16:16.206Z,9.00
2023-04-27T05:17:19.186Z,8.00
2023-04-27T05:18:22.068Z,8.50
2023-04-27T05:19:26.004Z,10.00
2023-04-27T05:20:28.835Z,8.00
2023-04-27T05:21:31.690Z,8.75
2023-04-27T05:22:34.531Z,8.75
2023-04-27T05:23:37.705Z,8.00
2023-04-27T05:24:40.528Z,8.00
2023-04-27T05:25:43.405Z,7.50
2023-04-27T05:26:46.334Z,6.50
2023-04-27T05:27:49.187Z,7.75
2023-04-27T05:28:52.480Z,8.50
2023-04-27T05:29:55.301Z,8.75
2023-04-27T05:30:58.110Z,12.00
2023-04-27T05:32:01.060Z,13.00
2023-04-27T05:33:05.453Z,10.00
2023-04-27T05:34:11.094Z,11.00
2023-04-27T05:35:14.482Z,11.00
2023-04-27T05:36:17.338Z,10.00
2023-04-27T05:37:20.146Z,10.00
2023-04-27T05:38:22.977Z,13.00
2023-04-27T05:39:25.800Z,13.00
2023-04-27T05:40:29.163Z,12.00
2023-04-27T05:41:33.800Z,9.00
2023-04-27T05:42:37.524Z,9.00
2023-04-27T05:43:40.561Z,6.00
2023-04-27T05:44:44.538Z,6.75
2023-04-27T05:45:47.376Z,10.00
2023-04-27T05:46:50.245Z,7.00
2023-04-27T05:47:53.135Z,7.00
2023-04-27T05:48:56.035Z,8.00
2023-04-27T05:49:58.921Z,6.00
2023-04-27T05:51:03.075Z,7.00
2023-04-27T05:52:06.138Z,7.00
2023-04-27T05:53:09.080Z,8.00
2023-04-27T05:54:11.977Z,6.00
2023-04-27T05:55:14.850Z,7.00
2023-04-27T05:56:18.613Z,6.00
2023-04-27T05:57:21.514Z,7.00
2023-04-27T05:58:24.387Z,7.00
2023-04-27T05:59:28.746Z,6.25
2023-04-27T06:00:31.781Z,6.25
2023-04-27T06:01:34.652Z,6.00
2023-04-27T06:02:37.760Z,6.50
2023-04-27T06:03:40.995Z,7.00
2023-04-27T06:04:44.183Z,6.50
2023-04-27T06:05:47.187Z,7.00
2023-04-27T06:06:50.121Z,8.00
2023-04-27T06:07:53.144Z,8.00
2023-04-27T06:08:55.984Z,5.00
2023-04-27T06:09:59.191Z,6.00
2023-04-27T06:11:02.066Z,7.00
2023-04-27T06:12:05.810Z,8.00
2023-04-27T06:13:08.725Z,7.75
2023-04-27T06:14:11.697Z,5.00
2023-04-27T06:15:14.766Z,5.00
2023-04-27T06:16:17.739Z,6.50
2023-04-27T06:17:20.702Z,8.00
2023-04-27T06:18:23.600Z,9.00
2023-04-27T06:19:26.673Z,10.00
2023-04-27T06:20:29.629Z,8.50
2023-04-27T06:21:37.109Z,5.00
2023-04-27T06:22:40.353Z,6.00
2023-04-27T06:23:43.856Z,8.75
2023-04-27T06:24:47.064Z,7.00
2023-04-27T06:25:49.954Z,7.25
2023-04-27T06:26:52.963Z,6.00
2023-04-27T06:27:57.622Z,8.00
2023-04-27T06:29:00.708Z,8.00
2023-04-27T06:30:03.587Z,7.75
2023-04-27T06:31:07.510Z,8.50
2023-04-27T06:32:10.618Z,7.00
2023-04-27T06:33:13.522Z,8.25
2023-04-27T06:34:16.541Z,6.50
2023-04-27T06:35:19.932Z,8.25
2023-04-27T06:36:23.014Z,9.00
2023-04-27T06:37:26.002Z,7.75
2023-04-27T06:38:28.865Z,7.75
2023-04-27T06:39:31.769Z,9.00
2023-04-27T06:40:34.661Z,9.00
2023-04-27T06:41:37.716Z,9.00
2023-04-27T06:42:40.636Z,9.00
2023-04-27T06:43:43.445Z,8.50
2023-04-27T06:44:46.477Z,6.75
2023-04-27T06:45:49.341Z,6.00
2023-04-27T06:46:52.576Z,7.00
2023-04-27T06:47:55.528Z,6.00
2023-04-27T06:48:58.335Z,7.00
2023-04-27T06:50:01.203Z,6.25
2023-04-27T06:51:04.082Z,6.50
2023-04-27T06:52:07.189Z,6.00
2023-04-27T06:53:10.469Z,6.00
2023-04-27T06:54:13.440Z,7.00
2023-04-27T06:55:16.329Z,6.00
2023-04-27T06:56:19.205Z,6.00
2023-04-27T06:57:22.062Z,5.75
2023-04-27T06:58:24.958Z,5.00
2023-04-27T06:59:28.650Z,4.00
2023-04-27T07:00:32.550Z,4.00
2023-04-27T07:01:35.928Z,5.00
2023-04-27T07:02:38.890Z,6.00
2023-04-27T07:03:42.192Z,5.00
2023-04-27T07:04:45.374Z,5.25
2023-04-27T07:05:48.243Z,5.00
2023-04-27T07:06:51.329Z,6.00
2023-04-27T07:07:54.534Z,6.00
2023-04-27T07:08:57.416Z,5.00
2023-04-27T07:10:00.354Z,4.00
2023-04-27T07:11:03.134Z,3.75
2023-04-27T07:12:06.038Z,4.00
2023-04-27T07:13:09.534Z,4.00
2023-04-27T07:14:12.804Z,5.00
2023-04-27T07:15:16.607Z,5.00
2023-04-27T07:16:20.823Z,5.00
2023-04-27T07:17:23.918Z,5.00
2023-04-27T07:18:29.285Z,6.00
2023-04-27T07:19:33.309Z,5.00
2023-04-27T07:20:36.232Z,5.50
2023-04-27T07:21:39.152Z,4.00
2023-04-27T07:22:42.191Z,4.00
2023-04-27T07:23:45.121Z,5.00
2023-04-27T07:24:47.946Z,2.25
2023-04-27T07:25:51.233Z,4.00
2023-04-27T07:26:54.066Z,3.00
2023-04-27T07:27:58.281Z,3.00
2023-04-27T07:29:04.223Z,3.00
2023-04-27T07:30:14.469Z,2.00
2023-04-27T07:31:17.844Z,4.00
2023-04-27T07:32:20.874Z,2.00
2023-04-27T07:33:23.705Z,3.00
2023-04-27T07:34:28.000Z,2.00
2023-04-27T07:35:35.064Z,2.50
2023-04-27T07:36:38.287Z,4.00
2023-04-27T07:37:41.680Z,3.00
2023-04-27T07:38:45.823Z,2.00
2023-04-27T07:39:50.467Z,2.00
2023-04-27T07:40:53.944Z,2.00
2023-04-27T07:41:56.772Z,0.75
2023-04-27T07:43:00.077Z,3.00
2023-04-27T07:44:03.804Z,3.25
2023-04-27T07:45:07.218Z,3.00
2023-04-27T07:46:11.075Z,3.00
2023-04-27T07:47:15.208Z,2.00
2023-04-27T07:48:18.362Z,4.00
2023-04-27T07:49:21.856Z,3.00
2023-04-27T07:50:26.642Z,4.00
2023-04-27T07:51:29.920Z,3.00
2023-04-27T07:52:32.767Z,5.00
2023-04-27T07:53:36.893Z,3.00
2023-04-27T07:54:39.722Z,3.00
2023-04-27T07:55:42.717Z,3.00
2023-04-27T07:56:45.624Z,3.00
2023-04-27T07:57:48.757Z,3.00
2023-04-27T07:58:51.619Z,1.00
2023-04-27T07:59:54.862Z,1.75
2023-04-27T08:01:00.455Z,2.00
2023-04-27T08:02:18.236Z,1.25
2023-04-27T08:03:24.153Z,1.00
2023-04-27T08:04:28.575Z,1.00
2023-04-27T08:06:36.034Z,2.00
2023-04-27T08:07:44.524Z,2.00
2023-04-27T08:08:49.837Z,1.00
2023-04-27T08:09:53.926Z,1.00
2023-04-27T08:10:56.940Z,1.50
2023-04-27T08:11:59.850Z,2.75
2023-04-27T08:13:02.824Z,2.00
2023-04-27T08:14:05.753Z,2.00
2023-04-27T08:15:09.264Z,4.00
2023-04-27T08:16:12.459Z,3.00
2023-04-27T08:17:15.388Z,3.00
2023-04-27T08:18:19.239Z,2.00
2023-04-27T08:19:22.396Z,1.75
2023-04-27T08:20:25.332Z,1.00
2023-04-27T08:21:29.650Z,1.75
2023-04-27T08:22:32.805Z,2.00
2023-04-27T08:23:35.701Z,1.00
2023-04-27T08:24:38.770Z,2.25
2023-04-27T08:25:41.564Z,4.00
2023-04-27T08:26:44.446Z,2.00
2023-04-27T08:27:47.311Z,4.00
2023-04-27T08:28:50.679Z,2.00
2023-04-27T08:29:53.919Z,3.00
2023-04-27T08:30:56.818Z,1.00
2023-04-27T08:32:01.753Z,1.00
2023-04-27T08:33:04.662Z,3.00
2023-04-27T08:34:07.746Z,2.00
2023-04-27T08:35:10.853Z,2.00
2023-04-27T08:36:13.748Z,1.75
2023-04-27T08:37:16.969Z,4.00
2023-04-27T08:38:20.599Z,3.00
2023-04-27T08:39:24.317Z,1.50
2023-04-27T08:40:27.333Z,1.25
2023-04-27T08:41:30.199Z,2.00
2023-04-27T08:42:33.097Z,1.00
2023-04-27T08:43:39.719Z,2.00
2023-04-27T08:44:45.038Z,1.50
2023-04-27T08:45:54.555Z,2.00
2023-04-27T08:46:58.386Z,2.00
2023-04-27T08:48:01.488Z,2.00
2023-04-27T08:49:04.383Z,3.00
2023-04-27T08:50:07.993Z,4.00
2023-04-27T08:51:12.342Z,2.00
2023-04-27T08:52:16.537Z,3.00
2023-04-27T08:53:21.081Z,2.00
2023-04-27T08:54:23.922Z,2.00
2023-04-27T08:55:26.803Z,2.00
2023-04-27T08:56:30.745Z,1.25
2023-04-27T08:57:33.596Z,2.00
2023-04-27T08:58:41.001Z,2.50
2023-04-27T08:59:46.537Z,3.00
2023-04-27T09:00:51.959Z,3.00
2023-04-27T09:01:55.402Z,2.00
2023-04-27T09:02:58.338Z,1.00
2023-04-27T09:04:03.345Z,1.00
2023-04-27T09:05:06.852Z,2.00
2023-04-27T09:06:10.661Z,3.00
2023-04-27T09:07:17.897Z,2.75
2023-04-27T09:08:20.785Z,2.00
2023-04-27T09:09:26.693Z,2.00
2023-04-27T09:10:32.729Z,2.00
2023-04-27T09:11:37.564Z,3.00
2023-04-27T09:12:40.580Z,3.00
2023-04-27T09:13:46.507Z,3.75
2023-04-27T09:14:59.289Z,3.00
2023-04-27T09:16:02.159Z,4.00
2023-04-27T09:17:05.165Z,3.00
2023-04-27T09:18:08.093Z,4.00
2023-04-27T09:19:11.341Z,2.00
2023-04-27T09:20:14.795Z,3.25
2023-04-27T09:21:32.390Z,3.00
2023-04-27T09:22:44.268Z,3.00
2023-04-27T09:23:47.802Z,3.00
2023-04-27T09:24:54.688Z,2.00
2023-04-27T09:25:58.786Z,2.00
2023-04-27T09:27:01.765Z,2.25
2023-04-27T09:28:04.949Z,1.75
2023-04-27T09:29:08.035Z,2.50
2023-04-27T09:30:15.864Z,3.00
2023-04-27T09:31:20.208Z,3.25
2023-04-27T09:32:23.299Z,4.50
2023-04-27T09:33:28.172Z,5.00
2023-04-27T09:34:43.655Z,5.25
2023-04-27T09:35:47.421Z,5.00
2023-04-27T09:36:51.177Z,4.00
2023-04-27T09:37:55.080Z,3.00
2023-04-27T09:38:59.086Z,4.00
2023-04-27T09:40:03.911Z,3.25
2023-04-27T09:41:12.238Z,3.00
2023-04-27T09:42:15.400Z,3.00
2023-04-27T09:43:18.813Z,4.50
2023-04-27T09:44:21.849Z,3.00
2023-04-27T09:45:26.104Z,4.00
2023-04-27T09:46:33.665Z,3.00
2023-04-27T09:47:38.022Z,3.00
2023-04-27T09:48:42.294Z,5.25
2023-04-27T09:49:45.204Z,3.25
2023-04-27T09:50:52.332Z,3.00
2023-04-27T09:51:57.226Z,3.00
2023-04-27T09:53:00.163Z,4.00
2023-04-27T09:54:06.888Z,3.00
2023-04-27T09:55:18.085Z,2.00
2023-04-27T09:56:43.021Z,1.00
2023-04-27T09:58:13.321Z,3.75
2023-04-27T09:59:18.916Z,2.00
2023-04-27T10:00:50.443Z,3.25
2023-04-27T10:02:00.084Z,4.50
2023-04-27T10:03:16.822Z,4.00
2023-04-27T10:04:31.816Z,2.00
2023-04-27T10:06:08.000Z,3.50
2023-04-27T10:07:15.615Z,3.00
2023-04-27T10:08:19.120Z,3.00
2023-04-27T10:09:25.341Z,4.00
2023-04-27T10:10:28.428Z,2.25
2023-04-27T10:11:42.452Z,3.00
2023-04-27T10:12:45.400Z,3.00
2023-04-27T10:13:55.690Z,2.25
2023-04-27T10:15:00.360Z,2.25
2023-04-27T10:16:18.070Z,4.00
2023-04-27T10:17:35.015Z,4.00
2023-04-27T10:18:38.016Z,4.00
2023-04-27T10:19:40.946Z,3.00
2023-04-27T10:20:43.888Z,2.00
2023-04-27T10:22:06.779Z,2.00
2023-04-27T10:23:09.636Z,2.00
2023-04-27T10:24:12.985Z,3.00
2023-04-27T10:25:28.659Z,3.00
2023-04-27T10:26:32.346Z,4.00
2023-04-27T10:27:41.147Z,4.00
2023-04-27T10:28:44.167Z,5.00
2023-04-27T10:29:49.328Z,4.00
2023-04-27T10:30:53.125Z,3.00
2023-04-27T10:31:58.255Z,3.75
2023-04-27T10:33:12.150Z,3.50
2023-04-27T10:34:21.470Z,2.75
2023-04-27T10:35:37.625Z,4.00
2023-04-27T10:36:42.130Z,3.00
2023-04-27T10:37:45.343Z,3.00
2023-04-27T10:38:57.312Z,3.00
2023-04-27T10:40:09.399Z,3.00
2023-04-27T10:41:16.100Z,4.50
2023-04-27T10:42:29.934Z,4.00
2023-04-27T10:43:35.244Z,3.00
2023-04-27T10:44:39.533Z,3.00
2023-04-27T10:45:43.376Z,3.00
2023-04-27T10:46:57.430Z,4.00
2023-04-27T10:48:02.522Z,5.00
2023-04-27T10:49:06.872Z,5.00
2023-04-27T10:50:12.727Z,3.00
2023-04-27T10:51:19.084Z,5.00
2023-04-27T10:52:22.089Z,6.50
2023-04-27T10:53:24.952Z,6.00
2023-04-27T10:54:29.904Z,4.00
2023-04-27T10:55:33.231Z,3.00
2023-04-27T10:56:36.184Z,5.00
2023-04-27T10:57:51.339Z,5.00
2023-04-27T10:58:54.235Z,6.00
2023-04-27T10:59:57.343Z,4.25
2023-04-27T11:01:00.441Z,6.75
2023-04-27T11:02:03.477Z,5.00
2023-04-27T11:03:19.721Z,5.00
2023-04-27T11:04:22.779Z,7.00
2023-04-27T11:05:34.621Z,5.00
2023-04-27T11:06:44.453Z,4.75
2023-04-27T11:07:48.893Z,3.75
2023-04-27T11:08:52.026Z,2.75
2023-04-27T11:09:55.586Z,3.50
2023-04-27T11:10:58.576Z,5.75
2023-04-27T11:12:02.022Z,4.50
2023-04-27T11:13:13.589Z,5.25
2023-04-27T11:14:23.725Z,4.00
2023-04-27T11:15:26.636Z,5.50
2023-04-27T11:16:31.420Z,4.00
2023-04-27T11:17:35.916Z,3.00
2023-04-27T11:18:39.585Z,3.25
2023-04-27T11:19:49.308Z,6.25
2023-04-27T11:20:54.270Z,6.00
2023-04-27T11:22:07.757Z,6.00
2023-04-27T11:23:12.412Z,3.25
2023-04-27T11:24:15.690Z,4.00
2023-04-27T11:25:19.374Z,3.75
2023-04-27T11:26:26.482Z,4.25
2023-04-27T11:27:39.404Z,5.00
2023-04-27T11:28:43.739Z,5.00
2023-04-27T11:29:46.937Z,4.00
2023-04-27T11:30:57.609Z,5.00
2023-04-27T11:32:00.582Z,5.50
2023-04-27T11:33:10.245Z,6.00
2023-04-27T11:34:19.555Z,12.00
2023-04-27T11:35:34.647Z,14.00
2023-04-27T11:36:37.850Z,17.50
2023-04-27T11:37:41.066Z,15.75
2023-04-27T11:38:44.304Z,6.50
2023-04-27T11:39:47.505Z,5.75
2023-04-27T11:41:05.362Z,4.00
2023-04-27T11:42:21.138Z,10.00
2023-04-27T11:43:27.171Z,5.50
2023-04-27T11:44:30.038Z,4.75
2023-04-27T11:45:33.356Z,5.00
2023-04-27T11:46:39.675Z,4.25
2023-04-27T11:47:47.820Z,4.75
2023-04-27T11:48:50.814Z,6.00
2023-04-27T11:49:54.235Z,5.50
2023-04-27T11:51:00.375Z,5.00
2023-04-27T11:52:04.733Z,5.00
2023-04-27T11:53:07.662Z,7.00
2023-04-27T11:54:11.454Z,5.00
2023-04-27T11:55:17.519Z,5.00
2023-04-27T11:56:20.350Z,5.00
2023-04-27T11:57:31.911Z,6.00
2023-04-27T11:58:38.949Z,4.00
2023-04-27T11:59:41.825Z,5.00
2023-04-27T12:00:44.875Z,3.00
2023-04-27T12:01:48.058Z,3.25
2023-04-27T12:02:51.103Z,3.00
2023-04-27T12:03:54.874Z,2.00
2023-04-27T12:04:58.036Z,4.00
2023-04-27T12:06:16.128Z,5.75
2023-04-27T12:07:24.019Z,5.75
2023-04-27T12:08:27.642Z,4.75
2023-04-27T12:09:30.473Z,4.00
2023-04-27T12:10:33.319Z,6.00
2023-04-27T12:11:36.158Z,11.25
2023-04-27T12:12:39.682Z,7.00
2023-04-27T12:13:42.645Z,3.75
2023-04-27T12:14:47.226Z,4.00
2023-04-27T12:15:50.002Z,4.50
2023-04-27T12:16:53.156Z,3.00
2023-04-27T12:17:56.133Z,4.00
2023-04-27T12:18:59.271Z,3.00
2023-04-27T12:20:02.315Z,4.00
2023-04-27T12:21:08.293Z,3.50
2023-04-27T12:22:11.619Z,4.00
2023-04-27T12:23:14.469Z,3.50
2023-04-27T12:24:17.647Z,4.00
2023-04-27T12:25:21.007Z,3.75
2023-04-27T12:26:23.875Z,4.25
2023-04-27T12:27:27.801Z,3.25
2023-04-27T12:28:30.600Z,2.00
2023-04-27T12:29:33.431Z,3.00
2023-04-27T12:30:36.411Z,4.00
2023-04-27T12:31:39.509Z,4.00
2023-04-27T12:32:42.980Z,4.00
2023-04-27T12:33:45.890Z,4.00
2023-04-27T12:34:48.852Z,4.00
2023-04-27T12:35:51.797Z,3.00
2023-04-27T12:36:54.632Z,4.00
2023-04-27T12:37:57.479Z,3.75
2023-04-27T12:39:14.784Z,3.00
2023-04-27T12:40:17.904Z,2.00
2023-04-27T12:41:20.772Z,3.25
2023-04-27T12:42:25.460Z,3.00
2023-04-27T12:43:28.336Z,3.00
2023-04-27T12:44:31.514Z,2.00
2023-04-27T12:45:34.342Z,3.00
2023-04-27T12:46:37.314Z,4.00
2023-04-27T12:47:54.437Z,4.00
2023-04-27T12:49:04.314Z,4.00
2023-04-27T12:50:07.768Z,4.00
2023-04-27T12:51:10.835Z,3.00
2023-04-27T12:52:14.067Z,2.00
2023-04-27T12:53:17.311Z,2.75
2023-04-27T12:54:20.273Z,3.50
2023-04-27T12:55:33.186Z,2.00
2023-04-27T12:56:37.499Z,3.50
2023-04-27T12:57:40.320Z,3.00
2023-04-27T12:58:43.327Z,3.00
2023-04-27T12:59:46.348Z,4.00
2023-04-27T13:00:49.225Z,3.00
2023-04-27T13:01:52.104Z,2.00
2023-04-27T13:02:55.215Z,1.75
2023-04-27T13:04:02.999Z,2.00
2023-04-27T13:05:09.109Z,3.75
2023-04-27T13:06:12.524Z,3.25
2023-04-27T13:07:15.426Z,4.00
2023-04-27T13:08:18.394Z,2.50
2023-04-27T13:09:21.263Z,3.00
2023-04-27T13:10:24.167Z,4.00
2023-04-27T13:11:27.696Z,4.25
2023-04-27T13:12:30.565Z,5.00
2023-04-27T13:13:33.493Z,3.00
2023-04-27T13:14:36.571Z,3.00
2023-04-27T13:15:39.926Z,3.50
2023-04-27T13:16:44.139Z,3.00
2023-04-27T13:17:47.044Z,4.00
2023-04-27T13:18:51.878Z,3.00
2023-04-27T13:19:54.834Z,3.25
2023-04-27T13:20:58.434Z,2.50
2023-04-27T13:22:01.291Z,4.00
2023-04-27T13:23:06.386Z,2.75
2023-04-27T13:24:09.358Z,3.00
2023-04-27T13:25:12.271Z,4.00
2023-04-27T13:26:18.432Z,3.00
2023-04-27T13:27:23.714Z,2.00
2023-04-27T13:28:26.831Z,4.00
2023-04-27T13:29:29.830Z,3.00
2023-04-27T13:30:33.519Z,3.00
2023-04-27T13:31:36.458Z,4.00
2023-04-27T13:32:39.400Z,3.00
2023-04-27T13:33:44.436Z,3.75
2023-04-27T13:34:47.317Z,4.00
2023-04-27T13:35:50.222Z,3.00
2023-04-27T13:36:53.058Z,2.00
2023-04-27T13:37:55.919Z,3.75
2023-04-27T13:38:58.995Z,4.00
2023-04-27T13:40:02.132Z,4.00
2023-04-27T13:41:05.542Z,4.00
2023-04-27T13:42:08.528Z,3.50
2023-04-27T13:43:11.437Z,3.00
2023-04-27T13:44:14.592Z,3.00
2023-04-27T13:45:17.773Z,2.50
2023-04-27T13:46:20.652Z,4.00
2023-04-27T13:47:23.719Z,4.50
2023-04-27T13:48:26.906Z,3.25
2023-04-27T13:49:29.829Z,2.00
2023-04-27T13:50:32.740Z,3.00
2023-04-27T13:51:36.066Z,2.00
2023-04-27T13:52:40.230Z,2.00
2023-04-27T13:53:43.245Z,2.00
2023-04-27T13:54:46.088Z,4.00
2023-04-27T13:55:48.937Z,3.00
2023-04-27T13:56:51.753Z,2.00
2023-04-27T13:57:54.653Z,2.00
2023-04-27T13:58:57.513Z,3.00
2023-04-27T14:00:03.730Z,3.00
2023-04-27T14:01:06.726Z,2.00
2023-04-27T14:02:10.256Z,3.00
2023-04-27T14:03:13.262Z,4.00
2023-04-27T14:04:16.246Z,3.00
2023-04-27T14:05:19.236Z,3.00
2023-04-27T14:06:22.552Z,1.00
2023-04-27T14:07:25.439Z,3.00
2023-04-27T14:08:28.500Z,3.00
2023-04-27T14:09:31.502Z,2.75
2023-04-27T14:10:34.368Z,2.00
2023-04-27T14:11:48.453Z,3.00
2023-04-27T14:12:51.866Z,2.50